Farmingdale, NJ

11:11 AM EDT on September 25, 2016 (GMT -0400)
Allaire

Weather History for KBLM - March, 2011

Change the Weather History Date:

Tuesday, March 1, 2011

  Actual Average Record
Temperature  
Mean Temperature 37 °F -  
Max Temperature 44 °F 43 °F 62 °F (2004)
Min Temperature 30 °F 29 °F 12 °F (2014)
Degree Days  
Heating Degree Days 28    
Moisture  
Dew Point 11 °F    
Average Humidity 34    
Maximum Humidity 44    
Minimum Humidity 21    
Precipitation  
Precipitation 0.00 in - - ()
Sea Level Pressure  
Sea Level Pressure 30.19 in    
Wind  
Wind Speed 15 mph (NNW)    
Max Wind Speed 25 mph    
Max Gust Speed 33 mph    
Averages and records for this station are not official NWS values.
T = Trace of Precipitation, MM = Missing Value Source: NWS Daily Summary

Daily Weather History Graph

Daily Weather History Graph

Search for Another Location

Airport or City:

Trip Planner

Search our weather history database for the weather conditions in past years. The results will help you decide how hot, cold, wet, or windy it might be!

Date:

Astronomy

Mar. 01, 2011 Rise Set
Actual Time 6:30 AM EST 5:47 PM EST
Civil Twilight 6:03 AM EST 6:15 PM EST
Nautical Twilight 5:31 AM EST 6:46 PM EST
Astronomical Twilight 5:00 AM EST 7:18 PM EST
Moon 4:37 AM EST (3/1) 3:01 PM EST (3/1)
Length of Visible Light 12h 12m
Length of Day
11h 17m
Waning Crescent, 9% of the Moon is Illuminated
Mar 1
Waning Crescent
Mar 4
New
Mar 12
First Quarter
Mar 19
Full
Mar 26
Last Quarter

Hourly Weather History & Observations

Time (EST) Temp. Windchill Dew Point Humidity Pressure Visibility Wind Dir Wind Speed Gust Speed Precip Events Conditions
12:15 AM 39.2 °F 28.7 °F 17.6 °F 42% 29.90 in - NNW 23.0 mph 33.4 mph N/A   Overcast
12:35 AM 39.2 °F 28.3 °F 17.6 °F 42% 29.92 in - NW 25.3 mph 29.9 mph N/A   Mostly Cloudy
12:55 AM 39.2 °F 29.8 °F 17.6 °F 42% 29.94 in - NNW 18.4 mph 26.5 mph N/A   Partly Cloudy
1:15 AM 37.4 °F 26.6 °F 15.8 °F 41% 29.96 in - NW 21.9 mph 27.6 mph N/A   Clear
1:35 AM 37.4 °F 27.2 °F 15.8 °F 41% 29.97 in - NW 19.6 mph 26.5 mph N/A   Clear
1:55 AM 35.6 °F 24.2 °F 15.8 °F 44% 29.98 in - NNW 21.9 mph 29.9 mph N/A   Clear
2:15 AM 35.6 °F 24.5 °F 14.0 °F 41% 29.99 in - NW 20.7 mph 24.2 mph N/A   Clear
2:35 AM 35.6 °F 25.5 °F 14.0 °F 41% 29.99 in - NNW 17.3 mph 23.0 mph N/A   Clear
2:55 AM 35.6 °F 25.2 °F 12.2 °F 38% 30.00 in - NNW 18.4 mph 25.3 mph N/A   Clear
3:15 AM 33.8 °F 23.5 °F 12.2 °F 41% 30.02 in - NNW 16.1 mph 26.5 mph N/A   Clear
3:35 AM 33.8 °F 23.9 °F 12.2 °F 41% 30.03 in - NNW 15.0 mph 25.3 mph N/A   Clear
3:55 AM 33.8 °F 24.3 °F 12.2 °F 41% 30.04 in - NNW 13.8 mph 23.0 mph N/A   Clear
4:15 AM 33.8 °F 22.5 °F 10.4 °F 38% 30.05 in - North 19.6 mph 25.3 mph N/A   Clear
4:35 AM 33.8 °F 23.5 °F 10.4 °F 38% 30.06 in - North 16.1 mph 24.2 mph N/A   Clear
4:55 AM 33.8 °F 25.8 °F 10.4 °F 38% 30.09 in - NNW 10.4 mph - N/A   Clear
5:15 AM 33.8 °F 25.8 °F 10.4 °F 38% 30.10 in - NNW 10.4 mph - N/A   Clear
5:35 AM 32.0 °F 23.6 °F 10.4 °F 41% 30.12 in - NNW 10.4 mph - N/A   Clear
5:55 AM 32.0 °F 22.5 °F 10.4 °F 41% 30.13 in - NNW 12.7 mph 18.4 mph N/A   Clear
6:15 AM 32.0 °F 24.2 °F 10.4 °F 41% 30.15 in - NNW 9.2 mph - N/A   Clear
6:35 AM 30.2 °F 21.9 °F 10.4 °F 44% 30.17 in - NW 9.2 mph - N/A   Clear
6:55 AM 32.0 °F 25.6 °F 10.4 °F 41% 30.19 in - NW 6.9 mph - N/A   Clear
7:15 AM 33.8 °F 25.3 °F 10.4 °F 38% 30.21 in - NNW 11.5 mph - N/A   Clear
7:35 AM 33.8 °F 24.8 °F 10.4 °F 38% 30.23 in - NNW 12.7 mph - N/A   Clear
7:55 AM 33.8 °F 24.8 °F 10.4 °F 38% 30.24 in - NNW 12.7 mph - N/A   Clear
8:15 AM 33.8 °F 24.8 °F 12.2 °F 41% 30.25 in - NNW 12.7 mph - N/A   Clear
8:35 AM 33.8 °F 23.5 °F 10.4 °F 38% 30.26 in - NNW 16.1 mph 21.9 mph N/A   Clear
8:55 AM 35.6 °F 25.9 °F 12.2 °F 38% 30.26 in - NNW 16.1 mph - N/A   Clear
9:15 AM 35.6 °F 25.5 °F 10.4 °F 35% 30.27 in - NNW 17.3 mph 25.3 mph N/A   Clear
9:35 AM 35.6 °F 25.9 °F 10.4 °F 35% 30.27 in - NNW 16.1 mph 21.9 mph N/A   Clear
9:55 AM 37.4 °F 28.5 °F 10.4 °F 33% 30.27 in - NNW 15.0 mph 19.6 mph N/A   Clear
10:15 AM 37.4 °F 29.8 °F 10.4 °F 33% 30.27 in - North 11.5 mph - N/A   Clear
10:35 AM 37.4 °F 28.5 °F 8.6 °F 30% 30.28 in - North 15.0 mph 24.2 mph N/A   Clear
10:55 AM 37.4 °F 29.3 °F 8.6 °F 30% 30.28 in - North 12.7 mph 21.9 mph N/A   Clear
11:15 AM 39.2 °F 30.2 °F 8.6 °F 28% 30.29 in - North 17.3 mph 21.9 mph N/A   Clear
11:35 AM 39.2 °F 31.6 °F 8.6 °F 28% 30.29 in - North 12.7 mph 19.6 mph N/A   Clear
11:55 AM 41.0 °F 32.5 °F 10.4 °F 29% 30.30 in - NNW 17.3 mph - N/A   Clear
12:15 PM 41.0 °F 34.7 °F 10.4 °F 29% 30.29 in - NNW 10.4 mph - N/A   Clear
12:35 PM 41.0 °F 33.5 °F 10.4 °F 29% 30.29 in - NNW 13.8 mph 18.4 mph N/A   Clear
12:55 PM 42.8 °F 36.2 °F 10.4 °F 27% 30.28 in - North 12.7 mph 16.1 mph N/A   Clear
1:15 PM 42.8 °F 36.2 °F 8.6 °F 25% 30.27 in - North 12.7 mph 20.7 mph N/A   Clear
1:35 PM 42.8 °F 36.6 °F 10.4 °F 27% 30.27 in - North 11.5 mph 18.4 mph N/A   Clear
1:55 PM 42.8 °F 35.8 °F 10.4 °F 27% 30.27 in - NNW 13.8 mph 17.3 mph N/A   Clear
2:15 PM 44.6 °F 38.8 °F 8.6 °F 23% 30.27 in - North 11.5 mph - N/A   Clear
2:35 PM 44.6 °F 40.2 °F 10.4 °F 25% 30.27 in - NNW 8.1 mph - N/A   Clear
3:15 PM 44.6 °F 43.1 °F 8.6 °F 23% 30.27 in - North 3.5 mph - N/A   Clear
3:35 PM 44.6 °F 40.2 °F 8.6 °F 23% 30.27 in - NW 8.1 mph - N/A   Clear
3:55 PM 44.6 °F 42.2 °F 8.6 °F 23% 30.27 in - WNW 4.6 mph - N/A   Clear
4:15 PM 44.6 °F 43.1 °F 8.6 °F 23% 30.28 in - NNW 3.5 mph - N/A   Clear
4:35 PM 44.6 °F 42.2 °F 6.8 °F 21% 30.27 in - NW 4.6 mph - N/A   Clear
4:55 PM 44.6 °F - 6.8 °F 21% 30.28 in - Calm Calm - N/A   Clear
5:15 PM 44.6 °F - 6.8 °F 21% 30.29 in - Calm Calm - N/A   Clear
5:35 PM 44.6 °F - 6.8 °F 21% 30.29 in - Calm Calm - N/A   Clear
5:55 PM 39.2 °F 35.0 °F 6.8 °F 26% 30.29 in - South 5.8 mph - N/A   Clear
6:15 PM 39.2 °F 35.0 °F 8.6 °F 28% 30.30 in - SSE 5.8 mph - N/A   Clear
6:35 PM 37.4 °F 32.8 °F 10.4 °F 33% 30.31 in - SSW 5.8 mph - N/A   Clear
6:55 PM 37.4 °F 33.8 °F 12.2 °F 36% 30.32 in - SSW 4.6 mph - N/A   Clear
7:15 PM 35.6 °F 30.7 °F 12.2 °F 38% 30.32 in - SSW 5.8 mph - N/A   Clear
7:35 PM 35.6 °F 30.7 °F 12.2 °F 38% 30.32 in - SSW 5.8 mph - N/A   Clear
7:55 PM 35.6 °F 29.9 °F 12.2 °F 38% 30.33 in - SSW 6.9 mph - N/A   Clear
8:15 PM 35.6 °F 29.9 °F 12.2 °F 38% 30.33 in - SSW 6.9 mph - N/A   Clear
8:35 PM 33.8 °F 28.6 °F 12.2 °F 41% 30.33 in - South 5.8 mph - N/A   Clear
8:55 PM 33.8 °F 28.6 °F 14.0 °F 44% 30.34 in - SSW 5.8 mph - N/A   Clear
9:15 PM 33.8 °F 29.6 °F 14.0 °F 44% 30.33 in - SW 4.6 mph - N/A   Clear
9:35 PM 33.8 °F 29.6 °F 14.0 °F 44% 30.32 in - SSW 4.6 mph - N/A   Clear
9:55 PM 32.0 °F 27.5 °F 15.8 °F 51% 30.32 in - SW 4.6 mph - N/A   Clear
10:15 PM 32.0 °F 27.5 °F 14.0 °F 48% 30.32 in - SSW 4.6 mph - N/A   Clear
10:35 PM 30.2 °F 25.4 °F 14.0 °F 51% 30.31 in - SSW 4.6 mph - N/A   Clear
11:55 PM 30.2 °F 25.4 °F 14.0 °F 51% 30.28 in 10.0 mi SSW 4.6 mph - N/A   Clear